sensor_id;sensor_type;location;lat;lon;timestamp;temperature;humidity
41924;DHT22;27613;48.116;11.656;2022-09-09T00:04:27;14.50;99.90
41924;DHT22;27613;48.116;11.656;2022-09-09T00:10:17;14.40;99.90
41924;DHT22;27613;48.116;11.656;2022-09-09T00:12:18;14.40;99.90
41924;DHT22;27613;48.116;11.656;2022-09-09T00:15:00;14.40;99.90
41924;DHT22;27613;48.116;11.656;2022-09-09T00:20:35;14.30;99.90
41924;DHT22;27613;48.116;11.656;2022-09-09T00:23:25;14.40;99.90
41924;DHT22;27613;48.116;11.656;2022-09-09T00:31:33;14.30;99.90
41924;DHT22;27613;48.116;11.656;2022-09-09T00:34:13;14.30;99.90
41924;DHT22;27613;48.116;11.656;2022-09-09T00:36:39;14.30;99.90
41924;DHT22;27613;48.116;11.656;2022-09-09T00:39:05;14.40;99.90
41924;DHT22;27613;48.116;11.656;2022-09-09T00:44:21;14.40;99.90
41924;DHT22;27613;48.116;11.656;2022-09-09T00:50:28;14.50;99.90
41924;DHT22;27613;48.116;11.656;2022-09-09T00:52:59;14.50;99.90
41924;DHT22;27613;48.116;11.656;2022-09-09T00:58:07;14.40;99.90
41924;DHT22;27613;48.116;11.656;2022-09-09T01:00:54;14.40;99.90
41924;DHT22;27613;48.116;11.656;2022-09-09T01:06:32;14.30;99.90
41924;DHT22;27613;48.116;11.656;2022-09-09T01:10:11;14.30;99.90
41924;DHT22;27613;48.116;11.656;2022-09-09T01:14:55;14.40;99.90
41924;DHT22;27613;48.116;11.656;2022-09-09T01:17:30;14.40;99.90
41924;DHT22;27613;48.116;11.656;2022-09-09T01:20:08;14.40;99.90
41924;DHT22;27613;48.116;11.656;2022-09-09T01:22:44;14.50;99.90
41924;DHT22;27613;48.116;11.656;2022-09-09T01:25:21;14.50;99.90
41924;DHT22;27613;48.116;11.656;2022-09-09T01:27:49;14.60;99.90
41924;DHT22;27613;48.116;11.656;2022-09-09T01:30:17;14.50;99.90
41924;DHT22;27613;48.116;11.656;2022-09-09T01:32:49;14.60;99.90
41924;DHT22;27613;48.116;11.656;2022-09-09T01:37:55;14.70;99.90
41924;DHT22;27613;48.116;11.656;2022-09-09T01:40:21;14.70;99.90
41924;DHT22;27613;48.116;11.656;2022-09-09T01:42:47;14.70;99.90
41924;DHT22;27613;48.116;11.656;2022-09-09T01:45:12;14.70;99.90
41924;DHT22;27613;48.116;11.656;2022-09-09T01:47:38;14.70;99.90
41924;DHT22;27613;48.116;11.656;2022-09-09T01:50:04;14.70;99.90
41924;DHT22;27613;48.116;11.656;2022-09-09T01:52:31;14.70;99.90
41924;DHT22;27613;48.116;11.656;2022-09-09T01:54:57;14.70;99.90
41924;DHT22;27613;48.116;11.656;2022-09-09T02:00:37;14.70;99.90
41924;DHT22;27613;48.116;11.656;2022-09-09T02:03:20;14.60;99.90
41924;DHT22;27613;48.116;11.656;2022-09-09T02:06:00;14.60;99.90
41924;DHT22;27613;48.116;11.656;2022-09-09T02:08:42;14.60;99.90
41924;DHT22;27613;48.116;11.656;2022-09-09T02:11:21;14.60;99.90
41924;DHT22;27613;48.116;11.656;2022-09-09T02:13:48;14.60;99.90
41924;DHT22;27613;48.116;11.656;2022-09-09T02:18:51;14.50;99.90
41924;DHT22;27613;48.116;11.656;2022-09-09T02:21:18;14.50;99.90
41924;DHT22;27613;48.116;11.656;2022-09-09T02:23:47;14.50;99.90
41924;DHT22;27613;48.116;11.656;2022-09-09T02:26:14;14.50;99.90
41924;DHT22;27613;48.116;11.656;2022-09-09T02:28:46;14.50;99.90
41924;DHT22;27613;48.116;11.656;2022-09-09T02:31:18;14.40;99.90
41924;DHT22;27613;48.116;11.656;2022-09-09T02:33:56;14.40;99.90
41924;DHT22;27613;48.116;11.656;2022-09-09T02:36:24;14.40;99.90
41924;DHT22;27613;48.116;11.656;2022-09-09T02:38:51;14.30;99.90
41924;DHT22;27613;48.116;11.656;2022-09-09T02:41:38;14.20;99.90
41924;DHT22;27613;48.116;11.656;2022-09-09T02:44:11;14.20;99.90
41924;DHT22;27613;48.116;11.656;2022-09-09T02:52:13;14.30;99.90
41924;DHT22;27613;48.116;11.656;2022-09-09T02:54:42;14.30;99.90
41924;DHT22;27613;48.116;11.656;2022-09-09T02:57:22;14.30;99.90
41924;DHT22;27613;48.116;11.656;2022-09-09T02:59:49;14.20;99.90
41924;DHT22;27613;48.116;11.656;2022-09-09T03:02:15;14.30;99.90
41924;DHT22;27613;48.116;11.656;2022-09-09T03:04:41;14.30;99.90
41924;DHT22;27613;48.116;11.656;2022-09-09T03:07:10;14.30;99.90
41924;DHT22;27613;48.116;11.656;2022-09-09T03:09:35;14.30;99.90
41924;DHT22;27613;48.116;11.656;2022-09-09T03:12:01;14.40;99.90
41924;DHT22;27613;48.116;11.656;2022-09-09T03:14:29;14.40;99.90
41924;DHT22;27613;48.116;11.656;2022-09-09T03:16:55;14.40;99.90
41924;DHT22;27613;48.116;11.656;2022-09-09T03:19:23;14.50;99.90
41924;DHT22;27613;48.116;11.656;2022-09-09T03:21:49;14.50;99.90
41924;DHT22;27613;48.116;11.656;2022-09-09T03:24:15;14.40;99.90
41924;DHT22;27613;48.116;11.656;2022-09-09T03:26:41;14.40;99.90
41924;DHT22;27613;48.116;11.656;2022-09-09T03:29:10;14.40;99.90
41924;DHT22;27613;48.116;11.656;2022-09-09T03:31:38;14.30;99.90
41924;DHT22;27613;48.116;11.656;2022-09-09T03:34:04;14.30;99.90
41924;DHT22;27613;48.116;11.656;2022-09-09T03:36:30;14.20;99.90
41924;DHT22;27613;48.116;11.656;2022-09-09T03:38:55;14.20;99.90
41924;DHT22;27613;48.116;11.656;2022-09-09T03:41:22;14.20;99.90
41924;DHT22;27613;48.116;11.656;2022-09-09T03:43:50;14.20;99.90
41924;DHT22;27613;48.116;11.656;2022-09-09T03:46:16;14.10;99.90
41924;DHT22;27613;48.116;11.656;2022-09-09T03:48:42;14.10;99.90
41924;DHT22;27613;48.116;11.656;2022-09-09T03:51:07;14.10;99.90
41924;DHT22;27613;48.116;11.656;2022-09-09T03:53:33;14.10;99.90
41924;DHT22;27613;48.116;11.656;2022-09-09T03:55:59;14.00;99.90
41924;DHT22;27613;48.116;11.656;2022-09-09T03:58:26;14.00;99.90
41924;DHT22;27613;48.116;11.656;2022-09-09T04:00:57;14.10;99.90
41924;DHT22;27613;48.116;11.656;2022-09-09T04:03:24;14.20;99.90
41924;DHT22;27613;48.116;11.656;2022-09-09T04:05:53;14.20;99.90
41924;DHT22;27613;48.116;11.656;2022-09-09T04:08:20;14.20;99.90
41924;DHT22;27613;48.116;11.656;2022-09-09T04:10:47;14.30;99.90
41924;DHT22;27613;48.116;11.656;2022-09-09T04:13:13;14.30;99.90
41924;DHT22;27613;48.116;11.656;2022-09-09T04:15:40;14.30;99.90
41924;DHT22;27613;48.116;11.656;2022-09-09T04:18:06;14.30;99.90
41924;DHT22;27613;48.116;11.656;2022-09-09T04:20:32;14.30;99.90
41924;DHT22;27613;48.116;11.656;2022-09-09T04:22:58;14.30;99.90
41924;DHT22;27613;48.116;11.656;2022-09-09T04:25:23;14.30;99.90
41924;DHT22;27613;48.116;11.656;2022-09-09T04:27:58;14.30;99.90
41924;DHT22;27613;48.116;11.656;2022-09-09T04:30:24;14.40;99.90
41924;DHT22;27613;48.116;11.656;2022-09-09T04:32:50;14.30;99.90
41924;DHT22;27613;48.116;11.656;2022-09-09T04:35:16;14.30;99.90
41924;DHT22;27613;48.116;11.656;2022-09-09T04:37:42;14.20;99.90
41924;DHT22;27613;48.116;11.656;2022-09-09T04:40:08;14.20;99.90
41924;DHT22;27613;48.116;11.656;2022-09-09T04:42:38;14.20;99.90
41924;DHT22;27613;48.116;11.656;2022-09-09T04:45:05;14.20;99.90
41924;DHT22;27613;48.116;11.656;2022-09-09T04:47:32;14.20;99.90
41924;DHT22;27613;48.116;11.656;2022-09-09T04:49:58;14.10;99.90
41924;DHT22;27613;48.116;11.656;2022-09-09T04:52:23;14.10;99.90
41924;DHT22;27613;48.116;11.656;2022-09-09T04:54:49;14.10;99.90
41924;DHT22;27613;48.116;11.656;2022-09-09T04:57:14;14.10;99.90
41924;DHT22;27613;48.116;11.656;2022-09-09T04:59:40;14.00;99.90
41924;DHT22;27613;48.116;11.656;2022-09-09T05:02:06;14.00;99.90
41924;DHT22;27613;48.116;11.656;2022-09-09T05:04:32;14.00;99.90
41924;DHT22;27613;48.116;11.656;2022-09-09T05:06:59;14.00;99.90
41924;DHT22;27613;48.116;11.656;2022-09-09T05:09:24;14.00;99.90
41924;DHT22;27613;48.116;11.656;2022-09-09T05:11:50;14.00;99.90
41924;DHT22;27613;48.116;11.656;2022-09-09T05:14:16;14.00;99.90
41924;DHT22;27613;48.116;11.656;2022-09-09T05:16:44;14.00;99.90
41924;DHT22;27613;48.116;11.656;2022-09-09T05:19:10;14.00;99.90
41924;DHT22;27613;48.116;11.656;2022-09-09T05:21:35;14.00;99.90
41924;DHT22;27613;48.116;11.656;2022-09-09T05:24:01;14.10;99.90
41924;DHT22;27613;48.116;11.656;2022-09-09T05:26:27;14.20;99.90
41924;DHT22;27613;48.116;11.656;2022-09-09T05:28:54;14.20;99.90
41924;DHT22;27613;48.116;11.656;2022-09-09T05:31:20;14.30;99.90
41924;DHT22;27613;48.116;11.656;2022-09-09T05:33:47;14.40;99.90
41924;DHT22;27613;48.116;11.656;2022-09-09T05:36:19;14.50;99.90
41924;DHT22;27613;48.116;11.656;2022-09-09T05:38:45;14.50;99.90
41924;DHT22;27613;48.116;11.656;2022-09-09T05:41:12;14.50;99.90
41924;DHT22;27613;48.116;11.656;2022-09-09T05:43:38;14.50;99.90
41924;DHT22;27613;48.116;11.656;2022-09-09T05:46:12;14.50;99.90
41924;DHT22;27613;48.116;11.656;2022-09-09T05:48:41;14.50;99.90
41924;DHT22;27613;48.116;11.656;2022-09-09T05:51:13;14.50;99.90
41924;DHT22;27613;48.116;11.656;2022-09-09T05:53:41;14.60;99.90
41924;DHT22;27613;48.116;11.656;2022-09-09T05:56:12;14.60;99.90
41924;DHT22;27613;48.116;11.656;2022-09-09T05:58:39;14.70;99.90
41924;DHT22;27613;48.116;11.656;2022-09-09T06:01:10;14.70;99.90
41924;DHT22;27613;48.116;11.656;2022-09-09T06:03:37;14.70;99.90
41924;DHT22;27613;48.116;11.656;2022-09-09T06:06:06;14.80;99.90
41924;DHT22;27613;48.116;11.656;2022-09-09T06:08:33;14.90;99.90
41924;DHT22;27613;48.116;11.656;2022-09-09T06:13:32;15.00;99.90
41924;DHT22;27613;48.116;11.656;2022-09-09T06:15:58;15.00;99.90
41924;DHT22;27613;48.116;11.656;2022-09-09T06:18:25;15.00;99.90
41924;DHT22;27613;48.116;11.656;2022-09-09T06:20:55;15.00;99.90
41924;DHT22;27613;48.116;11.656;2022-09-09T06:23:21;15.00;99.90
41924;DHT22;27613;48.116;11.656;2022-09-09T06:25:47;15.00;99.90
41924;DHT22;27613;48.116;11.656;2022-09-09T06:28:14;15.00;99.90
41924;DHT22;27613;48.116;11.656;2022-09-09T06:30:42;15.00;99.90
41924;DHT22;27613;48.116;11.656;2022-09-09T06:33:07;15.00;99.90
41924;DHT22;27613;48.116;11.656;2022-09-09T06:35:33;15.00;99.90
41924;DHT22;27613;48.116;11.656;2022-09-09T06:37:58;15.00;99.90
41924;DHT22;27613;48.116;11.656;2022-09-09T06:40:24;15.00;99.90
41924;DHT22;27613;48.116;11.656;2022-09-09T06:42:50;15.10;99.90
41924;DHT22;27613;48.116;11.656;2022-09-09T06:45:17;15.20;99.90
41924;DHT22;27613;48.116;11.656;2022-09-09T06:47:43;15.20;99.90
41924;DHT22;27613;48.116;11.656;2022-09-09T06:50:09;15.30;99.90
41924;DHT22;27613;48.116;11.656;2022-09-09T06:52:35;15.30;99.90
41924;DHT22;27613;48.116;11.656;2022-09-09T06:55:01;15.30;99.90
41924;DHT22;27613;48.116;11.656;2022-09-09T06:57:28;15.50;99.90
41924;DHT22;27613;48.116;11.656;2022-09-09T06:59:53;15.40;99.90
41924;DHT22;27613;48.116;11.656;2022-09-09T07:02:19;15.40;99.90
41924;DHT22;27613;48.116;11.656;2022-09-09T07:04:45;15.30;99.90
41924;DHT22;27613;48.116;11.656;2022-09-09T07:07:10;15.30;99.90
41924;DHT22;27613;48.116;11.656;2022-09-09T07:09:38;15.30;99.90
41924;DHT22;27613;48.116;11.656;2022-09-09T07:12:05;15.30;99.90
41924;DHT22;27613;48.116;11.656;2022-09-09T07:14:31;15.30;99.90
41924;DHT22;27613;48.116;11.656;2022-09-09T07:16:58;15.30;99.90
41924;DHT22;27613;48.116;11.656;2022-09-09T07:19:23;15.40;99.90
41924;DHT22;27613;48.116;11.656;2022-09-09T07:21:49;15.40;99.90
41924;DHT22;27613;48.116;11.656;2022-09-09T07:24:15;15.50;99.90
41924;DHT22;27613;48.116;11.656;2022-09-09T07:26:41;15.50;99.90
41924;DHT22;27613;48.116;11.656;2022-09-09T07:29:08;15.50;99.90
41924;DHT22;27613;48.116;11.656;2022-09-09T07:31:36;15.50;99.90
41924;DHT22;27613;48.116;11.656;2022-09-09T07:34:09;15.50;99.90
41924;DHT22;27613;48.116;11.656;2022-09-09T07:36:36;15.50;99.90
41924;DHT22;27613;48.116;11.656;2022-09-09T07:39:11;15.50;99.90
41924;DHT22;27613;48.116;11.656;2022-09-09T07:41:46;15.50;99.90
41924;DHT22;27613;48.116;11.656;2022-09-09T07:44:14;15.50;99.90
41924;DHT22;27613;48.116;11.656;2022-09-09T07:46:40;15.60;99.90
41924;DHT22;27613;48.116;11.656;2022-09-09T07:49:07;15.60;99.90
41924;DHT22;27613;48.116;11.656;2022-09-09T07:51:36;15.70;99.90
41924;DHT22;27613;48.116;11.656;2022-09-09T07:54:04;15.80;99.90
41924;DHT22;27613;48.116;11.656;2022-09-09T07:56:31;15.90;99.90
41924;DHT22;27613;48.116;11.656;2022-09-09T07:58:57;15.90;99.90
41924;DHT22;27613;48.116;11.656;2022-09-09T08:01:29;15.90;99.90
41924;DHT22;27613;48.116;11.656;2022-09-09T08:03:58;16.00;99.90
41924;DHT22;27613;48.116;11.656;2022-09-09T08:06:26;16.00;99.90
41924;DHT22;27613;48.116;11.656;2022-09-09T08:08:52;16.20;99.90
41924;DHT22;27613;48.116;11.656;2022-09-09T08:11:22;16.30;99.90
41924;DHT22;27613;48.116;11.656;2022-09-09T08:13:49;16.30;99.90
41924;DHT22;27613;48.116;11.656;2022-09-09T08:16:24;16.30;99.90
41924;DHT22;27613;48.116;11.656;2022-09-09T08:18:51;16.30;99.90
41924;DHT22;27613;48.116;11.656;2022-09-09T08:21:19;16.20;99.90
41924;DHT22;27613;48.116;11.656;2022-09-09T08:23:46;16.30;99.90
41924;DHT22;27613;48.116;11.656;2022-09-09T08:26:18;16.50;99.90
41924;DHT22;27613;48.116;11.656;2022-09-09T08:28:48;16.60;99.90
41924;DHT22;27613;48.116;11.656;2022-09-09T08:31:28;16.60;99.90
41924;DHT22;27613;48.116;11.656;2022-09-09T08:33:55;16.70;99.90
41924;DHT22;27613;48.116;11.656;2022-09-09T08:36:23;16.90;99.90
41924;DHT22;27613;48.116;11.656;2022-09-09T08:38:51;16.90;99.90
41924;DHT22;27613;48.116;11.656;2022-09-09T08:43:50;16.70;99.90
41924;DHT22;27613;48.116;11.656;2022-09-09T08:47:17;16.70;99.90
41924;DHT22;27613;48.116;11.656;2022-09-09T08:51:57;16.70;99.90
41924;DHT22;27613;48.116;11.656;2022-09-09T08:54:23;16.60;99.90
41924;DHT22;27613;48.116;11.656;2022-09-09T08:56:51;16.60;99.90
41924;DHT22;27613;48.116;11.656;2022-09-09T08:59:18;16.70;99.90
41924;DHT22;27613;48.116;11.656;2022-09-09T09:01:58;16.70;99.90
41924;DHT22;27613;48.116;11.656;2022-09-09T09:10:00;16.50;99.90
41924;DHT22;27613;48.116;11.656;2022-09-09T09:12:31;16.40;99.90
41924;DHT22;27613;48.116;11.656;2022-09-09T09:15:00;16.40;99.90
41924;DHT22;27613;48.116;11.656;2022-09-09T09:17:28;16.50;99.90
41924;DHT22;27613;48.116;11.656;2022-09-09T09:19:57;16.60;99.90
41924;DHT22;27613;48.116;11.656;2022-09-09T09:22:50;16.70;99.90
41924;DHT22;27613;48.116;11.656;2022-09-09T09:25:27;16.70;99.90
41924;DHT22;27613;48.116;11.656;2022-09-09T09:30:39;17.00;99.90
41924;DHT22;27613;48.116;11.656;2022-09-09T09:33:32;17.00;99.90
41924;DHT22;27613;48.116;11.656;2022-09-09T09:35:58;17.00;99.90
41924;DHT22;27613;48.116;11.656;2022-09-09T09:38:26;17.10;99.90
41924;DHT22;27613;48.116;11.656;2022-09-09T09:43:32;17.10;99.90
41924;DHT22;27613;48.116;11.656;2022-09-09T09:45:58;17.20;99.90
41924;DHT22;27613;48.116;11.656;2022-09-09T09:48:25;17.20;99.90
41924;DHT22;27613;48.116;11.656;2022-09-09T09:50:52;17.30;99.90
41924;DHT22;27613;48.116;11.656;2022-09-09T09:53:32;17.20;99.90
41924;DHT22;27613;48.116;11.656;2022-09-09T09:56:07;17.10;99.90
41924;DHT22;27613;48.116;11.656;2022-09-09T10:01:42;17.20;99.90
41924;DHT22;27613;48.116;11.656;2022-09-09T10:04:21;17.00;99.90
41924;DHT22;27613;48.116;11.656;2022-09-09T10:06:49;17.20;99.90
41924;DHT22;27613;48.116;11.656;2022-09-09T10:09:30;17.20;99.90
41924;DHT22;27613;48.116;11.656;2022-09-09T10:15:15;17.30;99.90
41924;DHT22;27613;48.116;11.656;2022-09-09T10:40:59;16.80;99.90
41924;DHT22;27613;48.116;11.656;2022-09-09T10:43:30;17.00;99.90
41924;DHT22;27613;48.116;11.656;2022-09-09T10:46:09;17.10;99.90
41924;DHT22;27613;48.116;11.656;2022-09-09T10:49:08;17.30;99.90
41924;DHT22;27613;48.116;11.656;2022-09-09T10:57:33;17.70;99.90
41924;DHT22;27613;48.116;11.656;2022-09-09T11:00:06;17.90;99.90
41924;DHT22;27613;48.116;11.656;2022-09-09T11:02:34;18.00;97.90
41924;DHT22;27613;48.116;11.656;2022-09-09T11:05:19;18.20;97.40
41924;DHT22;27613;48.116;11.656;2022-09-09T11:10:44;18.10;98.10
41924;DHT22;27613;48.116;11.656;2022-09-09T11:13:21;18.00;97.50
41924;DHT22;27613;48.116;11.656;2022-09-09T11:15:53;18.20;97.30
41924;DHT22;27613;48.116;11.656;2022-09-09T11:18:23;18.30;96.10
41924;DHT22;27613;48.116;11.656;2022-09-09T11:20:51;18.10;97.60
41924;DHT22;27613;48.116;11.656;2022-09-09T11:23:25;17.90;97.50
41924;DHT22;27613;48.116;11.656;2022-09-09T11:25:57;17.90;97.90
41924;DHT22;27613;48.116;11.656;2022-09-09T11:29:00;17.80;96.90
41924;DHT22;27613;48.116;11.656;2022-09-09T11:31:53;18.30;95.40
41924;DHT22;27613;48.116;11.656;2022-09-09T11:35:19;18.30;96.90
41924;DHT22;27613;48.116;11.656;2022-09-09T11:40:26;18.10;94.80
41924;DHT22;27613;48.116;11.656;2022-09-09T11:43:04;18.30;95.20
41924;DHT22;27613;48.116;11.656;2022-09-09T11:45:31;18.70;93.70
41924;DHT22;27613;48.116;11.656;2022-09-09T11:48:00;19.40;92.40
41924;DHT22;27613;48.116;11.656;2022-09-09T11:50:35;19.40;90.40
41924;DHT22;27613;48.116;11.656;2022-09-09T11:55:39;18.70;91.50
41924;DHT22;27613;48.116;11.656;2022-09-09T11:58:15;18.70;91.60
41924;DHT22;27613;48.116;11.656;2022-09-09T12:00:44;18.50;91.70
41924;DHT22;27613;48.116;11.656;2022-09-09T12:03:45;18.90;91.60
41924;DHT22;27613;48.116;11.656;2022-09-09T12:06:30;18.90;91.40
41924;DHT22;27613;48.116;11.656;2022-09-09T12:09:42;18.80;91.70
41924;DHT22;27613;48.116;11.656;2022-09-09T12:14:57;18.50;91.30
41924;DHT22;27613;48.116;11.656;2022-09-09T12:17:25;18.60;91.30
41924;DHT22;27613;48.116;11.656;2022-09-09T12:20:18;18.90;91.40
41924;DHT22;27613;48.116;11.656;2022-09-09T12:23:04;18.50;90.80
41924;DHT22;27613;48.116;11.656;2022-09-09T12:25:47;18.50;90.50
41924;DHT22;27613;48.116;11.656;2022-09-09T12:31:05;18.70;90.10
41924;DHT22;27613;48.116;11.656;2022-09-09T12:33:38;18.80;90.20
41924;DHT22;27613;48.116;11.656;2022-09-09T12:36:12;18.80;90.40
41924;DHT22;27613;48.116;11.656;2022-09-09T12:38:40;18.90;90.30
41924;DHT22;27613;48.116;11.656;2022-09-09T12:41:15;19.20;87.90
41924;DHT22;27613;48.116;11.656;2022-09-09T12:43:44;19.20;87.70
41924;DHT22;27613;48.116;11.656;2022-09-09T12:48:48;20.10;86.80
41924;DHT22;27613;48.116;11.656;2022-09-09T12:51:25;20.30;85.30
41924;DHT22;27613;48.116;11.656;2022-09-09T12:53:52;20.30;82.70
41924;DHT22;27613;48.116;11.656;2022-09-09T12:56:24;20.10;84.00
41924;DHT22;27613;48.116;11.656;2022-09-09T12:58:53;21.10;81.80
41924;DHT22;27613;48.116;11.656;2022-09-09T13:01:31;20.80;81.80
41924;DHT22;27613;48.116;11.656;2022-09-09T13:03:58;20.50;82.60
41924;DHT22;27613;48.116;11.656;2022-09-09T13:06:25;20.30;81.90
41924;DHT22;27613;48.116;11.656;2022-09-09T13:08:52;20.10;82.60
41924;DHT22;27613;48.116;11.656;2022-09-09T13:13:55;19.60;85.30
41924;DHT22;27613;48.116;11.656;2022-09-09T13:16:33;19.40;85.70
41924;DHT22;27613;48.116;11.656;2022-09-09T13:19:02;19.60;86.00
41924;DHT22;27613;48.116;11.656;2022-09-09T13:21:37;19.50;87.00
41924;DHT22;27613;48.116;11.656;2022-09-09T13:24:57;19.80;85.20
41924;DHT22;27613;48.116;11.656;2022-09-09T13:27:01;19.50;85.40
41924;DHT22;27613;48.116;11.656;2022-09-09T13:29:27;19.20;86.20
41924;DHT22;27613;48.116;11.656;2022-09-09T13:31:53;19.30;84.30
41924;DHT22;27613;48.116;11.656;2022-09-09T13:34:28;19.20;85.60
41924;DHT22;27613;48.116;11.656;2022-09-09T13:37:05;19.00;85.90
41924;DHT22;27613;48.116;11.656;2022-09-09T13:39:33;19.00;85.60
41924;DHT22;27613;48.116;11.656;2022-09-09T13:42:00;19.30;86.00
41924;DHT22;27613;48.116;11.656;2022-09-09T13:44:36;19.00;86.00
41924;DHT22;27613;48.116;11.656;2022-09-09T13:49:38;18.40;90.00
41924;DHT22;27613;48.116;11.656;2022-09-09T13:54:32;18.50;89.90
41924;DHT22;27613;48.116;11.656;2022-09-09T13:56:58;18.20;90.50
41924;DHT22;27613;48.116;11.656;2022-09-09T13:59:24;18.10;91.00
41924;DHT22;27613;48.116;11.656;2022-09-09T14:01:51;18.00;91.50
41924;DHT22;27613;48.116;11.656;2022-09-09T14:04:18;18.10;91.70
41924;DHT22;27613;48.116;11.656;2022-09-09T14:06:43;18.10;91.70
41924;DHT22;27613;48.116;11.656;2022-09-09T14:09:14;18.20;91.90
41924;DHT22;27613;48.116;11.656;2022-09-09T14:11:41;18.10;92.20
41924;DHT22;27613;48.116;11.656;2022-09-09T14:14:06;18.30;91.80
41924;DHT22;27613;48.116;11.656;2022-09-09T14:16:32;18.30;91.70
41924;DHT22;27613;48.116;11.656;2022-09-09T14:18:58;18.40;91.50
41924;DHT22;27613;48.116;11.656;2022-09-09T14:21:25;18.30;91.40
41924;DHT22;27613;48.116;11.656;2022-09-09T14:23:51;18.30;91.80
41924;DHT22;27613;48.116;11.656;2022-09-09T14:26:18;18.10;91.40
41924;DHT22;27613;48.116;11.656;2022-09-09T14:28:46;17.90;91.60
41924;DHT22;27613;48.116;11.656;2022-09-09T14:31:12;18.10;91.50
41924;DHT22;27613;48.116;11.656;2022-09-09T14:33:38;18.90;90.50
41924;DHT22;27613;48.116;11.656;2022-09-09T14:36:04;18.80;89.70
41924;DHT22;27613;48.116;11.656;2022-09-09T14:38:32;18.60;90.50
41924;DHT22;27613;48.116;11.656;2022-09-09T14:40:59;18.40;90.80
41924;DHT22;27613;48.116;11.656;2022-09-09T14:43:25;18.50;90.20
41924;DHT22;27613;48.116;11.656;2022-09-09T14:45:52;18.50;90.20
41924;DHT22;27613;48.116;11.656;2022-09-09T14:48:18;18.60;89.30
41924;DHT22;27613;48.116;11.656;2022-09-09T14:50:43;18.40;89.50
41924;DHT22;27613;48.116;11.656;2022-09-09T14:53:09;18.20;90.20
41924;DHT22;27613;48.116;11.656;2022-09-09T14:55:36;18.10;90.10
41924;DHT22;27613;48.116;11.656;2022-09-09T14:58:02;18.20;89.70
41924;DHT22;27613;48.116;11.656;2022-09-09T15:00:28;18.20;89.50
41924;DHT22;27613;48.116;11.656;2022-09-09T15:02:54;18.10;88.60
41924;DHT22;27613;48.116;11.656;2022-09-09T15:05:19;18.10;89.30
41924;DHT22;27613;48.116;11.656;2022-09-09T15:07:45;17.90;89.30
41924;DHT22;27613;48.116;11.656;2022-09-09T15:10:11;18.10;89.10
41924;DHT22;27613;48.116;11.656;2022-09-09T15:12:37;18.50;89.50
41924;DHT22;27613;48.116;11.656;2022-09-09T15:15:04;18.50;89.00
41924;DHT22;27613;48.116;11.656;2022-09-09T15:17:30;18.20;89.90
41924;DHT22;27613;48.116;11.656;2022-09-09T15:19:56;18.10;89.70
41924;DHT22;27613;48.116;11.656;2022-09-09T15:22:22;18.00;89.70
41924;DHT22;27613;48.116;11.656;2022-09-09T15:24:48;18.10;90.40
41924;DHT22;27613;48.116;11.656;2022-09-09T15:27:13;18.00;90.20
41924;DHT22;27613;48.116;11.656;2022-09-09T15:29:40;18.00;90.60
41924;DHT22;27613;48.116;11.656;2022-09-09T15:32:07;18.00;90.90
41924;DHT22;27613;48.116;11.656;2022-09-09T15:34:32;17.90;90.10
41924;DHT22;27613;48.116;11.656;2022-09-09T15:36:58;17.80;90.10
41924;DHT22;27613;48.116;11.656;2022-09-09T15:39:25;17.80;89.50
41924;DHT22;27613;48.116;11.656;2022-09-09T15:41:51;17.80;89.30
41924;DHT22;27613;48.116;11.656;2022-09-09T15:44:17;17.80;88.60
41924;DHT22;27613;48.116;11.656;2022-09-09T15:46:48;17.70;87.80
41924;DHT22;27613;48.116;11.656;2022-09-09T15:49:16;17.70;88.80
41924;DHT22;27613;48.116;11.656;2022-09-09T15:51:45;17.80;88.70
41924;DHT22;27613;48.116;11.656;2022-09-09T15:54:16;17.80;88.80
41924;DHT22;27613;48.116;11.656;2022-09-09T15:56:44;17.90;87.80
41924;DHT22;27613;48.116;11.656;2022-09-09T15:59:10;17.90;88.40
41924;DHT22;27613;48.116;11.656;2022-09-09T16:01:36;18.50;88.60
41924;DHT22;27613;48.116;11.656;2022-09-09T16:04:03;19.00;88.30
41924;DHT22;27613;48.116;11.656;2022-09-09T16:06:29;20.00;85.80
41924;DHT22;27613;48.116;11.656;2022-09-09T16:08:57;19.70;83.60
41924;DHT22;27613;48.116;11.656;2022-09-09T16:11:25;18.90;85.90
41924;DHT22;27613;48.116;11.656;2022-09-09T16:13:53;18.30;87.60
41924;DHT22;27613;48.116;11.656;2022-09-09T16:16:22;18.10;87.50
41924;DHT22;27613;48.116;11.656;2022-09-09T16:18:54;17.90;88.30
41924;DHT22;27613;48.116;11.656;2022-09-09T16:23:52;17.80;89.20
41924;DHT22;27613;48.116;11.656;2022-09-09T16:26:21;18.30;87.50
41924;DHT22;27613;48.116;11.656;2022-09-09T16:28:48;19.00;84.60
41924;DHT22;27613;48.116;11.656;2022-09-09T16:31:17;19.20;83.50
41924;DHT22;27613;48.116;11.656;2022-09-09T16:33:43;20.10;80.90
41924;DHT22;27613;48.116;11.656;2022-09-09T16:36:11;19.70;79.50
41924;DHT22;27613;48.116;11.656;2022-09-09T16:38:38;20.10;79.10
41924;DHT22;27613;48.116;11.656;2022-09-09T16:41:05;20.00;78.30
41924;DHT22;27613;48.116;11.656;2022-09-09T16:43:32;19.40;79.50
41924;DHT22;27613;48.116;11.656;2022-09-09T16:45:58;19.30;79.60
41924;DHT22;27613;48.116;11.656;2022-09-09T16:48:26;18.90;81.60
41924;DHT22;27613;48.116;11.656;2022-09-09T16:50:52;18.80;82.60
41924;DHT22;27613;48.116;11.656;2022-09-09T16:53:18;18.60;83.50
41924;DHT22;27613;48.116;11.656;2022-09-09T16:55:43;18.20;84.00
41924;DHT22;27613;48.116;11.656;2022-09-09T16:58:12;18.10;84.90
41924;DHT22;27613;48.116;11.656;2022-09-09T17:00:38;18.00;85.80
41924;DHT22;27613;48.116;11.656;2022-09-09T17:03:04;17.80;86.60
41924;DHT22;27613;48.116;11.656;2022-09-09T17:05:29;17.60;86.90
41924;DHT22;27613;48.116;11.656;2022-09-09T17:07:55;17.60;87.20
41924;DHT22;27613;48.116;11.656;2022-09-09T17:10:23;17.40;87.10
41924;DHT22;27613;48.116;11.656;2022-09-09T17:12:49;17.40;88.10
41924;DHT22;27613;48.116;11.656;2022-09-09T17:15:15;17.30;88.20
41924;DHT22;27613;48.116;11.656;2022-09-09T17:17:41;17.20;90.00
41924;DHT22;27613;48.116;11.656;2022-09-09T17:20:09;17.10;90.00
41924;DHT22;27613;48.116;11.656;2022-09-09T17:22:35;17.00;90.30
41924;DHT22;27613;48.116;11.656;2022-09-09T17:25:00;17.00;90.50
41924;DHT22;27613;48.116;11.656;2022-09-09T17:27:26;16.90;90.80
41924;DHT22;27613;48.116;11.656;2022-09-09T17:29:51;16.80;91.20
41924;DHT22;27613;48.116;11.656;2022-09-09T17:32:17;16.70;91.70
41924;DHT22;27613;48.116;11.656;2022-09-09T17:34:43;16.60;92.00